createdAt,value
2018-02-15T00:00:09.787Z,66.21
2018-02-15T00:02:38.798Z,66.29
2018-02-15T00:05:07.797Z,65.97
2018-02-15T00:10:12.244Z,66.34
2018-02-15T00:12:41.682Z,66.48
2018-02-15T00:15:10.742Z,66.45
2018-02-15T00:17:39.748Z,66.40
2018-02-15T00:20:08.735Z,65.88
2018-02-15T00:22:37.752Z,66.16
2018-02-15T00:25:06.756Z,66.23
2018-02-15T00:27:35.751Z,66.28
2018-02-15T00:30:04.752Z,66.39
2018-02-15T00:32:33.785Z,66.17
2018-02-15T00:35:02.803Z,66.20
2018-02-15T00:37:33.770Z,66.27
2018-02-15T00:40:02.780Z,66.24
2018-02-15T00:42:31.875Z,66.27
2018-02-15T00:45:01.249Z,66.14
2018-02-15T00:47:30.724Z,66.00
2018-02-15T00:49:59.755Z,66.24
2018-02-15T00:52:28.782Z,65.96
2018-02-15T00:54:57.783Z,66.20
2018-02-15T00:57:26.754Z,65.67
2018-02-15T00:59:55.765Z,65.47
2018-02-15T01:02:24.759Z,64.92
2018-02-15T01:04:53.752Z,65.41
2018-02-15T01:07:22.746Z,65.40
2018-02-15T01:09:51.784Z,65.42
2018-02-15T01:12:20.770Z,65.56
2018-02-15T01:14:49.744Z,65.60
2018-02-15T01:17:18.731Z,65.91
2018-02-15T01:19:47.794Z,65.84
2018-02-15T01:22:16.806Z,66.01
2018-02-15T01:24:45.777Z,65.93
2018-02-15T01:27:14.735Z,65.78
2018-02-15T01:29:43.738Z,65.87
2018-02-15T01:32:12.719Z,65.54
2018-02-15T01:34:41.769Z,65.91
2018-02-15T01:37:10.740Z,65.22
2018-02-15T01:39:41.732Z,65.62
2018-02-15T01:42:10.726Z,64.70
2018-02-15T01:44:39.752Z,65.12
2018-02-15T01:47:10.730Z,65.08
2018-02-15T01:49:45.741Z,64.55
2018-02-15T01:52:14.833Z,64.43
2018-02-15T01:54:45.248Z,64.20
2018-02-15T01:57:16.020Z,63.92
2018-02-15T02:00:16.405Z,64.20
2018-02-15T02:02:47.538Z,63.72
2018-02-15T02:05:16.730Z,63.80
2018-02-15T02:07:45.773Z,64.08
2018-02-15T02:10:14.766Z,63.98
2018-02-15T02:12:43.764Z,64.34
2018-02-15T02:15:12.768Z,64.17
2018-02-15T02:17:41.812Z,64.70
2018-02-15T02:20:10.916Z,64.75
2018-02-15T02:22:39.776Z,64.84
2018-02-15T02:25:08.774Z,64.93
2018-02-15T02:27:37.786Z,64.68
2018-02-15T02:30:07.081Z,64.77
2018-02-15T02:32:36.684Z,64.78
2018-02-15T02:35:05.753Z,64.24
2018-02-15T02:37:36.768Z,64.61
2018-02-15T02:40:05.801Z,64.41
2018-02-15T02:42:34.848Z,64.56
2018-02-15T02:45:03.772Z,64.42
2018-02-15T02:47:32.767Z,64.61
2018-02-15T02:50:01.802Z,64.81
2018-02-15T02:52:30.780Z,64.45
2018-02-15T02:54:59.796Z,64.17
2018-02-15T02:57:28.774Z,64.55
2018-02-15T02:59:57.874Z,64.80
2018-02-15T03:02:26.892Z,64.77
2018-02-15T03:04:57.010Z,64.83
2018-02-15T03:07:26.706Z,65.30
2018-02-15T03:09:55.800Z,65.58
2018-02-15T03:12:25.302Z,65.46
2018-02-15T03:14:54.764Z,65.71
2018-02-15T03:17:24.035Z,65.91
2018-02-15T03:19:53.243Z,66.01
2018-02-15T03:22:22.762Z,66.19
2018-02-15T03:24:51.776Z,66.68
2018-02-15T03:27:20.793Z,66.86
2018-02-15T03:29:49.748Z,66.89
2018-02-15T03:32:18.750Z,67.27
2018-02-15T03:34:47.740Z,67.61
2018-02-15T03:37:16.758Z,67.93
2018-02-15T03:39:45.764Z,68.40
2018-02-15T03:42:14.776Z,69.02
2018-02-15T03:44:43.776Z,69.17
2018-02-15T03:47:12.798Z,69.51
2018-02-15T03:49:41.793Z,69.78
2018-02-15T03:52:10.785Z,70.23
2018-02-15T03:54:39.791Z,70.31
2018-02-15T03:57:08.837Z,70.37
2018-02-15T03:59:37.795Z,70.55
2018-02-15T04:02:06.795Z,70.78
2018-02-15T04:04:35.815Z,70.75
2018-02-15T04:07:04.863Z,70.94
2018-02-15T04:09:33.809Z,70.95
2018-02-15T04:12:02.803Z,71.09
2018-02-15T04:15:31.529Z,71.48
2018-02-15T04:18:01.402Z,71.59
2018-02-15T04:20:30.804Z,71.50
2018-02-15T04:23:00.403Z,71.78
2018-02-15T04:27:04.421Z,71.99
2018-02-15T04:31:02.547Z,72.56
2018-02-15T04:34:02.593Z,73.03
2018-02-15T04:36:32.102Z,73.44
2018-02-15T04:39:01.680Z,73.49
2018-02-15T04:41:31.066Z,73.30
2018-02-15T04:44:00.748Z,73.52
2018-02-15T04:46:29.863Z,74.27
2018-02-15T04:48:59.496Z,74.37
2018-02-15T04:51:28.887Z,74.29
2018-02-15T04:53:58.521Z,74.69
2018-02-15T04:56:28.191Z,74.64
2018-02-15T04:58:57.786Z,74.62
2018-02-15T05:01:27.504Z,74.91
2018-02-15T05:03:57.407Z,75.00
2018-02-15T05:06:27.537Z,75.49
2018-02-15T05:08:56.811Z,75.18
2018-02-15T05:11:25.766Z,75.14
2018-02-15T05:13:55.058Z,75.67
2018-02-15T05:16:24.275Z,75.40
2018-02-15T05:18:55.571Z,75.30
2018-02-15T05:21:24.794Z,75.48
2018-02-15T05:23:53.836Z,75.51
2018-02-15T05:26:22.815Z,75.48
2018-02-15T05:28:52.051Z,75.55
2018-02-15T05:31:21.207Z,75.83
2018-02-15T05:33:50.732Z,75.92
2018-02-15T05:36:19.865Z,76.24
2018-02-15T05:38:48.869Z,76.67
2018-02-15T05:41:17.848Z,76.47
2018-02-15T05:43:47.080Z,76.08
2018-02-15T05:46:16.247Z,75.77
2018-02-15T05:48:45.770Z,75.84
2018-02-15T05:51:14.784Z,75.87
2018-02-15T05:53:43.884Z,75.83
2018-02-15T05:56:13.314Z,76.11
2018-02-15T05:58:42.767Z,76.67
2018-02-15T06:01:11.766Z,76.40
2018-02-15T06:03:40.750Z,76.61
2018-02-15T06:06:09.750Z,76.53
2018-02-15T06:08:38.768Z,76.11
2018-02-15T06:11:08.450Z,76.65
2018-02-15T06:13:40.484Z,76.59
2018-02-15T06:16:09.832Z,76.54
2018-02-15T06:18:39.674Z,76.85
2018-02-15T06:21:08.803Z,76.88
2018-02-15T06:23:38.094Z,76.73
2018-02-15T06:26:07.688Z,76.67
2018-02-15T06:28:37.078Z,76.93
2018-02-15T06:31:06.851Z,76.85
2018-02-15T06:33:36.286Z,76.80
2018-02-15T06:36:05.790Z,76.83
2018-02-15T06:38:35.294Z,76.69
2018-02-15T06:41:04.784Z,76.91
2018-02-15T06:44:27.103Z,76.71
2018-02-15T06:46:57.422Z,76.74
2018-02-15T06:49:27.542Z,76.92
2018-02-15T06:51:56.790Z,76.65
2018-02-15T06:54:28.004Z,76.49
2018-02-15T06:56:59.878Z,76.61
2018-02-15T06:59:29.097Z,76.67
2018-02-15T07:01:58.762Z,76.99
2018-02-15T07:04:29.732Z,77.11
2018-02-15T07:07:01.711Z,77.12
2018-02-15T07:09:33.749Z,77.09
2018-02-15T07:12:06.023Z,76.85
2018-02-15T07:14:35.615Z,76.92
2018-02-15T07:17:04.840Z,76.89
2018-02-15T07:19:34.116Z,76.82
2018-02-15T07:22:03.789Z,77.03
2018-02-15T07:24:32.834Z,76.85
2018-02-15T07:28:29.072Z,77.01
2018-02-15T07:30:59.032Z,76.90
2018-02-15T07:44:30.859Z,76.90
2018-02-15T07:47:01.575Z,76.95
2018-02-15T07:56:26.507Z,77.14
2018-02-15T07:59:00.701Z,76.86
2018-02-15T08:01:30.444Z,77.21
2018-02-15T08:04:00.222Z,77.44
2018-02-15T08:06:30.115Z,77.37
2018-02-15T08:09:05.056Z,77.39
2018-02-15T08:11:38.376Z,77.48
2018-02-15T08:14:10.746Z,77.61
2018-02-15T08:16:43.789Z,77.60
2018-02-15T08:19:15.832Z,77.77
2018-02-15T08:21:49.407Z,77.60
2018-02-15T08:24:22.178Z,77.51
2018-02-15T08:26:54.740Z,77.46
2018-02-15T08:29:24.254Z,77.71
2018-02-15T08:31:54.123Z,77.66
2018-02-15T08:34:24.285Z,77.73
2018-02-15T08:36:53.828Z,77.63
2018-02-15T08:39:23.465Z,77.60
2018-02-15T08:41:52.753Z,77.65
2018-02-15T08:44:23.732Z,77.79
2018-02-15T08:46:56.488Z,77.74
2018-02-15T08:49:29.055Z,77.69
2018-02-15T08:52:01.210Z,77.87
2018-02-15T08:56:31.546Z,77.98
2018-02-15T08:59:01.075Z,78.08
2018-02-15T09:01:30.691Z,78.32
2018-02-15T09:03:59.894Z,77.99
2018-02-15T09:06:29.255Z,77.87
2018-02-15T09:08:58.894Z,77.95
2018-02-15T09:11:28.047Z,77.85
2018-02-15T09:13:57.453Z,78.02
2018-02-15T09:16:26.787Z,78.14
2018-02-15T09:18:56.145Z,78.23
2018-02-15T09:21:25.758Z,78.11
2018-02-15T09:23:54.861Z,78.38
2018-02-15T09:26:24.011Z,78.74
2018-02-15T09:28:53.363Z,78.68
2018-02-15T09:31:23.051Z,78.67
2018-02-15T09:33:53.508Z,78.55
2018-02-15T09:36:23.277Z,78.50
2018-02-15T09:38:52.880Z,78.77
2018-02-15T09:41:24.916Z,78.56
2018-02-15T09:43:58.221Z,78.59
2018-02-15T09:46:30.515Z,78.66
2018-02-15T09:49:00.700Z,78.64
2018-02-15T09:51:30.892Z,78.77
2018-02-15T09:54:00.814Z,78.89
2018-02-15T09:56:30.814Z,79.18
2018-02-15T09:59:00.410Z,78.92
2018-02-15T10:01:31.018Z,79.00
2018-02-15T10:04:00.927Z,79.12
2018-02-15T10:06:30.666Z,79.11
2018-02-15T10:08:59.790Z,78.94
2018-02-15T10:11:29.087Z,78.91
2018-02-15T10:13:58.689Z,79.04
2018-02-15T10:16:29.677Z,79.08
2018-02-15T10:19:00.861Z,78.97
2018-02-15T10:21:33.657Z,78.91
2018-02-15T10:24:06.733Z,79.19
2018-02-15T10:26:39.722Z,79.19
2018-02-15T10:29:13.705Z,79.52
2018-02-15T10:31:45.714Z,79.60
2018-02-15T10:34:18.775Z,79.90
2018-02-15T10:36:49.792Z,79.66
2018-02-15T10:39:22.718Z,79.64
2018-02-15T10:41:56.765Z,79.70
2018-02-15T10:44:27.933Z,79.59
2018-02-15T10:46:58.990Z,79.56
2018-02-15T10:49:32.727Z,79.51
2018-02-15T10:52:05.682Z,79.55
2018-02-15T10:54:38.723Z,79.71
2018-02-15T10:57:11.008Z,79.67
2018-02-15T10:59:43.654Z,79.50
2018-02-15T11:02:21.685Z,79.68
2018-02-15T11:05:00.770Z,79.62
2018-02-15T11:07:34.863Z,79.53
2018-02-15T11:10:07.784Z,79.50
2018-02-15T11:12:38.790Z,79.86
2018-02-15T11:15:11.046Z,79.84
2018-02-15T11:17:44.757Z,79.88
2018-02-15T11:20:16.734Z,79.60
2018-02-15T11:22:49.014Z,79.35
2018-02-15T11:25:22.628Z,79.95
2018-02-15T11:27:55.566Z,79.98
2018-02-15T11:30:29.081Z,80.02
2018-02-15T11:33:03.645Z,80.11
2018-02-15T11:35:37.726Z,79.98
2018-02-15T11:38:09.749Z,79.98
2018-02-15T11:40:42.213Z,80.51
2018-02-15T11:43:13.749Z,80.31
2018-02-15T11:45:51.398Z,80.28
2018-02-15T11:48:23.704Z,80.36
2018-02-15T11:50:56.036Z,80.38
2018-02-15T11:53:28.728Z,80.41
2018-02-15T11:56:03.095Z,80.74
2018-02-15T11:58:35.721Z,80.08
2018-02-15T12:01:08.687Z,80.51
2018-02-15T12:03:41.730Z,80.81
2018-02-15T12:06:13.712Z,80.59
2018-02-15T12:08:47.685Z,80.97
2018-02-15T12:11:19.807Z,81.00
2018-02-15T12:13:53.770Z,80.95
2018-02-15T12:16:26.798Z,81.19
2018-02-15T12:19:00.278Z,80.90
2018-02-15T12:21:34.757Z,80.92
2018-02-15T12:24:07.923Z,81.18
2018-02-15T12:26:40.654Z,81.50
2018-02-15T12:29:12.723Z,81.00
2018-02-15T12:31:45.703Z,81.29
2018-02-15T12:34:18.798Z,81.12
2018-02-15T12:36:51.743Z,80.96
2018-02-15T12:39:24.700Z,81.19
2018-02-15T12:42:02.745Z,80.88
2018-02-15T12:44:35.642Z,81.23
2018-02-15T12:47:09.081Z,81.52
2018-02-15T12:49:40.726Z,81.62
2018-02-15T12:52:15.724Z,81.14
2018-02-15T12:54:45.798Z,81.66
2018-02-15T12:57:15.592Z,81.49
2018-02-15T12:59:44.776Z,81.45
2018-02-15T13:02:14.275Z,81.29
2018-02-15T13:04:44.122Z,81.00
2018-02-15T13:07:13.812Z,81.36
2018-02-15T13:09:43.344Z,81.15
2018-02-15T13:12:18.936Z,81.16
2018-02-15T13:14:48.622Z,81.04
2018-02-15T13:17:17.736Z,81.11
2018-02-15T13:19:52.828Z,81.47
2018-02-15T13:33:46.575Z,81.79
2018-02-15T13:36:15.793Z,80.93
2018-02-15T13:38:45.033Z,81.39
2018-02-15T13:41:14.674Z,81.55
2018-02-15T13:43:44.046Z,81.17
2018-02-15T13:46:13.683Z,80.78
2018-02-15T13:48:42.890Z,80.78
2018-02-15T13:51:12.239Z,80.33
2018-02-15T13:53:41.784Z,80.54
2018-02-15T13:56:11.337Z,81.01
2018-02-15T13:58:40.864Z,80.93
2018-02-15T14:01:10.128Z,80.70
2018-02-15T14:03:39.822Z,80.66
2018-02-15T14:06:09.494Z,80.52
2018-02-15T14:08:38.829Z,81.24
2018-02-15T14:11:08.123Z,81.37
2018-02-15T14:13:38.539Z,81.16
2018-02-15T14:16:22.802Z,81.01
2018-02-15T14:18:52.224Z,80.68
2018-02-15T14:21:21.949Z,80.78
2018-02-15T14:23:51.629Z,80.59
2018-02-15T14:26:20.775Z,81.21
2018-02-15T14:28:49.921Z,80.86
2018-02-15T14:31:19.223Z,80.35
2018-02-15T14:33:48.796Z,81.11
2018-02-15T14:36:18.068Z,81.63
2018-02-15T14:38:47.797Z,81.53
2018-02-15T14:41:16.863Z,81.63
2018-02-15T14:43:46.058Z,81.73
2018-02-15T14:46:15.818Z,82.12
2018-02-15T14:48:45.032Z,81.64
2018-02-15T14:51:14.614Z,81.98
2018-02-15T14:53:43.831Z,81.54
2018-02-15T14:56:13.037Z,81.66
2018-02-15T14:58:42.254Z,81.49
2018-02-15T15:01:11.815Z,81.07
2018-02-15T15:03:41.063Z,81.27
2018-02-15T15:06:10.679Z,81.64
2018-02-15T15:08:39.853Z,81.98
2018-02-15T15:11:09.334Z,81.31
2018-02-15T15:13:38.864Z,81.28
2018-02-15T15:16:08.260Z,82.08
2018-02-15T15:18:37.710Z,81.29
2018-02-15T15:21:06.934Z,81.50
2018-02-15T15:23:36.662Z,80.65
2018-02-15T15:26:06.215Z,81.38
2018-02-15T15:28:35.784Z,82.08
2018-02-15T15:31:05.725Z,81.61
2018-02-15T15:33:34.803Z,80.85
2018-02-15T15:36:03.964Z,81.27
2018-02-15T15:38:33.267Z,81.31
2018-02-15T15:41:02.807Z,81.32
2018-02-15T15:43:32.024Z,81.20
2018-02-15T15:46:01.694Z,81.20
2018-02-15T15:48:31.077Z,81.15
2018-02-15T15:51:00.662Z,81.10
2018-02-15T15:53:29.896Z,80.99
2018-02-15T15:55:59.284Z,81.23
2018-02-15T15:58:28.813Z,80.70
2018-02-15T16:00:58.296Z,80.49
2018-02-15T16:03:27.871Z,80.99
2018-02-15T16:05:57.781Z,80.53
2018-02-15T16:08:27.059Z,80.76
2018-02-15T16:10:56.698Z,80.55
2018-02-15T16:13:25.765Z,81.62
2018-02-15T16:15:54.854Z,81.67
2018-02-15T16:18:24.426Z,80.98
2018-02-15T16:20:53.951Z,81.00
2018-02-15T16:23:23.464Z,80.89
2018-02-15T16:25:52.923Z,80.90
2018-02-15T16:28:24.893Z,81.07
2018-02-15T16:30:54.261Z,80.74
2018-02-15T16:33:23.812Z,80.73
2018-02-15T16:35:53.208Z,81.28
2018-02-15T16:38:22.899Z,81.07
2018-02-15T16:40:52.094Z,80.24
2018-02-15T16:43:21.787Z,80.81
2018-02-15T16:45:51.244Z,81.04
2018-02-15T16:48:20.885Z,81.23
2018-02-15T16:50:50.088Z,80.43
2018-02-15T16:53:19.771Z,80.53
2018-02-15T16:55:49.249Z,80.34
2018-02-15T16:58:18.815Z,81.29
2018-02-15T17:00:48.110Z,81.21
2018-02-15T17:03:17.769Z,80.84
2018-02-15T17:05:47.089Z,81.00
2018-02-15T17:08:16.831Z,80.34
2018-02-15T17:10:46.431Z,80.29
2018-02-15T17:13:15.874Z,81.33
2018-02-15T17:15:45.298Z,80.33
2018-02-15T17:18:14.820Z,81.36
2018-02-15T17:20:44.040Z,81.62
2018-02-15T17:23:13.572Z,81.25
2018-02-15T17:25:42.777Z,80.80
2018-02-15T17:28:12.245Z,81.77
2018-02-15T17:30:41.807Z,80.09
2018-02-15T17:33:11.140Z,81.02
2018-02-15T17:35:40.680Z,80.33
2018-02-15T17:38:09.795Z,79.98
2018-02-15T17:40:38.941Z,80.99
2018-02-15T17:43:08.255Z,79.64
2018-02-15T17:45:37.685Z,79.32
2018-02-15T17:48:06.849Z,79.80
2018-02-15T17:50:36.095Z,79.53
2018-02-15T17:53:05.768Z,80.74
2018-02-15T17:55:34.752Z,81.00
2018-02-15T17:58:04.089Z,79.38
2018-02-15T18:00:33.677Z,83.04
2018-02-15T18:03:02.804Z,90.22
2018-02-15T18:05:31.920Z,90.81
2018-02-15T18:08:01.282Z,90.80
2018-02-15T18:10:30.713Z,90.98
2018-02-15T18:12:59.783Z,91.17
2018-02-15T18:15:29.082Z,90.62
2018-02-15T18:18:00.746Z,90.53
2018-02-15T18:20:29.763Z,90.05
2018-02-15T18:22:58.793Z,89.64
2018-02-15T18:25:28.069Z,89.76
2018-02-15T18:27:57.897Z,89.55
2018-02-15T18:30:26.774Z,89.42
2018-02-15T18:32:55.785Z,89.19
2018-02-15T18:35:25.107Z,88.73
2018-02-15T18:37:54.817Z,88.30
2018-02-15T18:40:24.219Z,88.38
2018-02-15T18:42:53.785Z,88.27
2018-02-15T18:45:23.083Z,88.23
2018-02-15T18:47:52.763Z,87.32
2018-02-15T18:50:22.077Z,87.37
2018-02-15T18:52:51.823Z,87.68
2018-02-15T18:55:20.890Z,87.16
2018-02-15T18:57:50.234Z,87.66
2018-02-15T19:00:19.817Z,87.01
2018-02-15T19:04:44.819Z,86.98
2018-02-15T19:07:14.801Z,87.06
2018-02-15T19:09:44.656Z,86.53
2018-02-15T19:12:14.603Z,86.71
2018-02-15T19:14:43.874Z,86.87
2018-02-15T19:17:13.438Z,86.50
2018-02-15T19:19:42.763Z,86.39
2018-02-15T19:22:11.871Z,86.30
2018-02-15T19:24:40.862Z,86.30
2018-02-15T19:27:09.862Z,86.00
2018-02-15T19:29:38.852Z,85.89
2018-02-15T19:32:08.300Z,86.13
2018-02-15T19:34:37.767Z,85.88
2018-02-15T19:37:06.778Z,86.00
2018-02-15T19:39:35.754Z,85.98
2018-02-15T19:42:04.762Z,86.02
2018-02-15T19:44:33.789Z,85.65
2018-02-15T19:47:02.809Z,85.74
2018-02-15T19:49:31.813Z,85.69
2018-02-15T19:52:00.881Z,85.72
2018-02-15T19:54:30.029Z,85.61
2018-02-15T19:56:58.920Z,85.76
2018-02-15T19:59:27.795Z,85.75
2018-02-15T20:01:56.822Z,85.58
2018-02-15T20:04:25.844Z,85.56
2018-02-15T20:06:54.775Z,85.52
2018-02-15T20:09:23.819Z,85.36
2018-02-15T20:11:52.817Z,85.51
2018-02-15T20:14:21.770Z,85.52
2018-02-15T20:16:50.764Z,85.38
2018-02-15T20:19:19.803Z,85.33
2018-02-15T20:21:48.855Z,85.22
2018-02-15T20:24:17.866Z,85.25
2018-02-15T20:26:52.724Z,85.40
2018-02-15T20:29:22.089Z,85.25
2018-02-15T20:31:51.242Z,85.24
2018-02-15T20:34:20.764Z,85.17
2018-02-15T20:36:49.739Z,85.18
2018-02-15T20:39:24.675Z,85.49
2018-02-15T20:41:53.753Z,85.06
2018-02-15T20:44:22.752Z,84.98
2018-02-15T20:46:51.763Z,85.26
2018-02-15T20:52:11.533Z,85.26
2018-02-15T20:54:47.420Z,85.15
2018-02-15T21:04:18.534Z,85.11
2018-02-15T21:06:48.521Z,85.26
2018-02-15T21:09:18.454Z,85.04
2018-02-15T21:11:47.746Z,84.85
2018-02-15T21:14:16.781Z,84.90
2018-02-15T21:16:45.748Z,85.09
2018-02-15T21:19:14.770Z,84.82
2018-02-15T21:21:43.759Z,85.07
2018-02-15T21:24:12.794Z,84.90
2018-02-15T21:26:41.769Z,84.95
2018-02-15T21:29:10.802Z,84.76
2018-02-15T21:31:39.822Z,85.06
2018-02-15T21:34:10.690Z,84.90
2018-02-15T21:36:43.709Z,84.88
2018-02-15T21:39:12.757Z,84.86
2018-02-15T21:41:41.784Z,84.71
2018-02-15T21:44:10.752Z,84.80
2018-02-15T21:46:39.763Z,84.70
2018-02-15T21:49:08.740Z,84.69
2018-02-15T21:51:37.766Z,84.79
2018-02-15T21:54:06.746Z,84.68
2018-02-15T21:56:36.063Z,84.51
2018-02-15T21:59:05.251Z,84.57
2018-02-15T22:01:34.684Z,84.36
2018-02-15T22:04:03.711Z,84.60
2018-02-15T22:06:32.724Z,84.65
2018-02-15T22:09:01.743Z,84.42
2018-02-15T22:11:30.722Z,84.67
2018-02-15T22:13:59.729Z,84.32
2018-02-15T22:16:28.735Z,84.54
2018-02-15T22:18:57.716Z,84.17
2018-02-15T22:21:26.756Z,84.18
2018-02-15T22:23:55.767Z,84.25
2018-02-15T22:26:24.774Z,83.69
2018-02-15T22:28:53.731Z,84.16
2018-02-15T22:31:22.743Z,84.23
2018-02-15T22:33:51.731Z,84.50
2018-02-15T22:36:20.731Z,84.38
2018-02-15T22:38:49.728Z,84.31
2018-02-15T22:41:18.748Z,84.27
2018-02-15T22:43:47.746Z,84.50
2018-02-15T22:46:16.726Z,84.42
2018-02-15T22:48:45.746Z,84.60
2018-02-15T22:51:14.759Z,84.14
2018-02-15T22:53:43.818Z,84.33
2018-02-15T22:56:12.763Z,84.31
2018-02-15T22:58:41.758Z,84.71
2018-02-15T23:01:10.750Z,84.62
2018-02-15T23:03:39.759Z,84.58
2018-02-15T23:06:08.826Z,84.56
2018-02-15T23:08:37.770Z,84.38
2018-02-15T23:11:06.786Z,84.45
2018-02-15T23:13:35.772Z,84.60
2018-02-15T23:16:04.825Z,84.49
2018-02-15T23:18:33.784Z,84.78
2018-02-15T23:21:02.779Z,84.26
2018-02-15T23:23:31.776Z,84.24
2018-02-15T23:26:00.776Z,84.43
2018-02-15T23:28:29.796Z,84.15
2018-02-15T23:30:58.763Z,84.77
2018-02-15T23:33:27.740Z,84.05
2018-02-15T23:35:56.753Z,84.55
2018-02-15T23:38:25.763Z,84.30
2018-02-15T23:40:54.866Z,84.81
2018-02-15T23:43:23.776Z,84.48
2018-02-15T23:45:52.763Z,84.91
2018-02-15T23:48:21.781Z,84.35
2018-02-15T23:50:50.741Z,84.51
2018-02-15T23:53:19.775Z,84.65
2018-02-15T23:55:48.770Z,84.67
2018-02-15T23:58:17.764Z,85.02
